sensor_id;sensor_type;location;lat;lon;timestamp;P1;durP1;ratioP1;P2;durP2;ratioP2
84670;SDS011;74898;42.716;23.624;2024-02-21T00:01:38;16.67;;;9.05;;
84670;SDS011;74898;42.716;23.624;2024-02-21T00:04:04;17.10;;;8.55;;
84670;SDS011;74898;42.716;23.624;2024-02-21T00:06:29;16.27;;;8.75;;
84670;SDS011;74898;42.716;23.624;2024-02-21T00:08:55;19.55;;;9.57;;
84670;SDS011;74898;42.716;23.624;2024-02-21T00:11:20;17.85;;;9.85;;
84670;SDS011;74898;42.716;23.624;2024-02-21T00:13:46;19.40;;;9.32;;
84670;SDS011;74898;42.716;23.624;2024-02-21T00:16:11;17.50;;;9.43;;
84670;SDS011;74898;42.716;23.624;2024-02-21T00:18:38;22.48;;;9.80;;
84670;SDS011;74898;42.716;23.624;2024-02-21T00:21:04;20.60;;;9.82;;
84670;SDS011;74898;42.716;23.624;2024-02-21T00:23:29;18.45;;;9.43;;
84670;SDS011;74898;42.716;23.624;2024-02-21T00:25:55;19.13;;;9.02;;
84670;SDS011;74898;42.716;23.624;2024-02-21T00:28:20;16.10;;;8.65;;
84670;SDS011;74898;42.716;23.624;2024-02-21T00:30:46;16.52;;;8.73;;
84670;SDS011;74898;42.716;23.624;2024-02-21T00:33:13;18.85;;;9.00;;
84670;SDS011;74898;42.716;23.624;2024-02-21T00:35:38;18.05;;;9.07;;
84670;SDS011;74898;42.716;23.624;2024-02-21T00:38:04;17.05;;;10.00;;
84670;SDS011;74898;42.716;23.624;2024-02-21T00:40:30;18.48;;;9.57;;
84670;SDS011;74898;42.716;23.624;2024-02-21T00:42:56;21.90;;;9.80;;
84670;SDS011;74898;42.716;23.624;2024-02-21T00:45:21;18.92;;;9.75;;
84670;SDS011;74898;42.716;23.624;2024-02-21T00:47:47;14.90;;;9.48;;
84670;SDS011;74898;42.716;23.624;2024-02-21T00:50:13;20.05;;;9.90;;
84670;SDS011;74898;42.716;23.624;2024-02-21T00:52:38;18.92;;;9.65;;
84670;SDS011;74898;42.716;23.624;2024-02-21T00:55:04;15.95;;;8.30;;
84670;SDS011;74898;42.716;23.624;2024-02-21T00:57:30;19.75;;;9.45;;
84670;SDS011;74898;42.716;23.624;2024-02-21T00:59:56;17.00;;;8.93;;
84670;SDS011;74898;42.716;23.624;2024-02-21T01:02:22;19.67;;;9.35;;
84670;SDS011;74898;42.716;23.624;2024-02-21T01:04:48;18.73;;;9.02;;
84670;SDS011;74898;42.716;23.624;2024-02-21T01:07:13;17.67;;;9.27;;
84670;SDS011;74898;42.716;23.624;2024-02-21T01:09:39;16.63;;;9.43;;
84670;SDS011;74898;42.716;23.624;2024-02-21T01:12:04;19.42;;;10.13;;
84670;SDS011;74898;42.716;23.624;2024-02-21T01:14:30;19.13;;;10.20;;
84670;SDS011;74898;42.716;23.624;2024-02-21T01:16:55;20.15;;;9.65;;
84670;SDS011;74898;42.716;23.624;2024-02-21T01:19:21;19.30;;;9.55;;
84670;SDS011;74898;42.716;23.624;2024-02-21T01:21:46;17.42;;;8.30;;
84670;SDS011;74898;42.716;23.624;2024-02-21T01:24:12;17.10;;;8.25;;
84670;SDS011;74898;42.716;23.624;2024-02-21T01:26:37;14.23;;;7.97;;
84670;SDS011;74898;42.716;23.624;2024-02-21T01:29:03;14.23;;;8.38;;
84670;SDS011;74898;42.716;23.624;2024-02-21T01:31:29;12.70;;;7.95;;
84670;SDS011;74898;42.716;23.624;2024-02-21T01:33:55;12.07;;;7.28;;
84670;SDS011;74898;42.716;23.624;2024-02-21T01:36:20;15.48;;;7.90;;
84670;SDS011;74898;42.716;23.624;2024-02-21T01:38:46;15.98;;;7.22;;
84670;SDS011;74898;42.716;23.624;2024-02-21T01:41:11;16.17;;;8.82;;
84670;SDS011;74898;42.716;23.624;2024-02-21T01:43:37;14.40;;;8.02;;
84670;SDS011;74898;42.716;23.624;2024-02-21T01:46:02;15.77;;;8.20;;
84670;SDS011;74898;42.716;23.624;2024-02-21T01:48:28;15.18;;;8.43;;
84670;SDS011;74898;42.716;23.624;2024-02-21T01:50:54;16.05;;;9.13;;
84670;SDS011;74898;42.716;23.624;2024-02-21T01:53:29;18.13;;;9.40;;
84670;SDS011;74898;42.716;23.624;2024-02-21T01:55:58;19.25;;;10.07;;
84670;SDS011;74898;42.716;23.624;2024-02-21T01:58:24;17.55;;;9.70;;
84670;SDS011;74898;42.716;23.624;2024-02-21T02:00:49;22.63;;;9.73;;
84670;SDS011;74898;42.716;23.624;2024-02-21T02:03:16;18.60;;;9.50;;
84670;SDS011;74898;42.716;23.624;2024-02-21T02:05:45;20.85;;;9.82;;
84670;SDS011;74898;42.716;23.624;2024-02-21T02:08:12;20.33;;;9.90;;
84670;SDS011;74898;42.716;23.624;2024-02-21T02:10:40;23.70;;;10.15;;
84670;SDS011;74898;42.716;23.624;2024-02-21T02:13:06;23.90;;;10.88;;
84670;SDS011;74898;42.716;23.624;2024-02-21T02:16:04;22.65;;;10.68;;
84670;SDS011;74898;42.716;23.624;2024-02-21T02:18:23;25.75;;;11.68;;
84670;SDS011;74898;42.716;23.624;2024-02-21T02:20:48;23.63;;;11.48;;
84670;SDS011;74898;42.716;23.624;2024-02-21T02:25:53;20.17;;;9.93;;
84670;SDS011;74898;42.716;23.624;2024-02-21T02:28:18;18.73;;;10.27;;
84670;SDS011;74898;42.716;23.624;2024-02-21T02:30:45;22.58;;;10.77;;
84670;SDS011;74898;42.716;23.624;2024-02-21T02:33:11;19.05;;;9.82;;
84670;SDS011;74898;42.716;23.624;2024-02-21T02:35:36;22.65;;;11.13;;
84670;SDS011;74898;42.716;23.624;2024-02-21T02:38:02;21.77;;;11.68;;
84670;SDS011;74898;42.716;23.624;2024-02-21T02:40:28;22.73;;;11.65;;
84670;SDS011;74898;42.716;23.624;2024-02-21T02:42:54;21.77;;;11.05;;
84670;SDS011;74898;42.716;23.624;2024-02-21T02:45:22;19.90;;;10.13;;
84670;SDS011;74898;42.716;23.624;2024-02-21T02:47:52;20.88;;;10.18;;
84670;SDS011;74898;42.716;23.624;2024-02-21T02:50:19;21.40;;;10.60;;
84670;SDS011;74898;42.716;23.624;2024-02-21T02:52:45;25.13;;;13.02;;
84670;SDS011;74898;42.716;23.624;2024-02-21T02:55:10;27.08;;;13.30;;
84670;SDS011;74898;42.716;23.624;2024-02-21T02:57:36;25.83;;;12.45;;
84670;SDS011;74898;42.716;23.624;2024-02-21T03:00:01;25.38;;;12.93;;
84670;SDS011;74898;42.716;23.624;2024-02-21T03:02:28;25.50;;;13.68;;
84670;SDS011;74898;42.716;23.624;2024-02-21T03:04:53;28.73;;;16.35;;
84670;SDS011;74898;42.716;23.624;2024-02-21T03:07:19;31.02;;;16.55;;
84670;SDS011;74898;42.716;23.624;2024-02-21T03:09:45;26.10;;;13.13;;
84670;SDS011;74898;42.716;23.624;2024-02-21T03:12:10;20.55;;;10.60;;
84670;SDS011;74898;42.716;23.624;2024-02-21T03:14:36;18.83;;;9.70;;
84670;SDS011;74898;42.716;23.624;2024-02-21T03:17:02;20.25;;;9.25;;
84670;SDS011;74898;42.716;23.624;2024-02-21T03:19:28;19.50;;;9.30;;
84670;SDS011;74898;42.716;23.624;2024-02-21T03:21:54;22.40;;;10.50;;
84670;SDS011;74898;42.716;23.624;2024-02-21T03:24:20;18.98;;;8.95;;
84670;SDS011;74898;42.716;23.624;2024-02-21T03:26:46;19.60;;;9.82;;
84670;SDS011;74898;42.716;23.624;2024-02-21T03:29:13;18.30;;;9.07;;
84670;SDS011;74898;42.716;23.624;2024-02-21T03:31:39;19.92;;;10.02;;
84670;SDS011;74898;42.716;23.624;2024-02-21T03:34:05;22.98;;;10.07;;
84670;SDS011;74898;42.716;23.624;2024-02-21T03:36:31;19.77;;;10.13;;
84670;SDS011;74898;42.716;23.624;2024-02-21T03:38:56;23.75;;;9.98;;
84670;SDS011;74898;42.716;23.624;2024-02-21T03:41:22;20.05;;;10.05;;
84670;SDS011;74898;42.716;23.624;2024-02-21T03:43:47;21.58;;;10.30;;
84670;SDS011;74898;42.716;23.624;2024-02-21T03:46:13;19.35;;;9.82;;
84670;SDS011;74898;42.716;23.624;2024-02-21T03:48:39;24.15;;;10.80;;
84670;SDS011;74898;42.716;23.624;2024-02-21T03:51:05;23.52;;;11.20;;
84670;SDS011;74898;42.716;23.624;2024-02-21T03:53:30;24.80;;;10.98;;
84670;SDS011;74898;42.716;23.624;2024-02-21T03:55:56;19.65;;;9.70;;
84670;SDS011;74898;42.716;23.624;2024-02-21T03:58:25;23.30;;;11.18;;
84670;SDS011;74898;42.716;23.624;2024-02-21T04:00:50;27.98;;;11.77;;
84670;SDS011;74898;42.716;23.624;2024-02-21T04:03:17;31.08;;;12.20;;
84670;SDS011;74898;42.716;23.624;2024-02-21T04:05:42;26.95;;;11.07;;
84670;SDS011;74898;42.716;23.624;2024-02-21T04:08:08;28.20;;;12.73;;
84670;SDS011;74898;42.716;23.624;2024-02-21T04:10:33;32.40;;;13.43;;
84670;SDS011;74898;42.716;23.624;2024-02-21T04:12:59;26.50;;;12.38;;
84670;SDS011;74898;42.716;23.624;2024-02-21T04:15:24;29.33;;;11.45;;
84670;SDS011;74898;42.716;23.624;2024-02-21T04:17:50;27.80;;;11.07;;
84670;SDS011;74898;42.716;23.624;2024-02-21T04:20:16;26.92;;;11.73;;
84670;SDS011;74898;42.716;23.624;2024-02-21T04:22:45;30.63;;;12.82;;
84670;SDS011;74898;42.716;23.624;2024-02-21T04:25:11;30.33;;;12.60;;
84670;SDS011;74898;42.716;23.624;2024-02-21T04:27:40;24.63;;;12.02;;
84670;SDS011;74898;42.716;23.624;2024-02-21T04:30:06;25.65;;;11.90;;
84670;SDS011;74898;42.716;23.624;2024-02-21T04:32:32;20.90;;;10.65;;
84670;SDS011;74898;42.716;23.624;2024-02-21T04:34:59;22.42;;;10.25;;
84670;SDS011;74898;42.716;23.624;2024-02-21T04:37:24;21.15;;;9.70;;
84670;SDS011;74898;42.716;23.624;2024-02-21T04:39:50;19.38;;;10.43;;
84670;SDS011;74898;42.716;23.624;2024-02-21T04:42:16;24.85;;;9.90;;
84670;SDS011;74898;42.716;23.624;2024-02-21T04:44:42;21.88;;;10.80;;
84670;SDS011;74898;42.716;23.624;2024-02-21T04:47:07;22.38;;;10.05;;
84670;SDS011;74898;42.716;23.624;2024-02-21T04:49:33;24.33;;;12.05;;
84670;SDS011;74898;42.716;23.624;2024-02-21T04:51:59;30.02;;;12.40;;
84670;SDS011;74898;42.716;23.624;2024-02-21T04:54:25;23.75;;;10.90;;
84670;SDS011;74898;42.716;23.624;2024-02-21T04:56:50;22.15;;;10.48;;
84670;SDS011;74898;42.716;23.624;2024-02-21T04:59:16;22.70;;;11.07;;
84670;SDS011;74898;42.716;23.624;2024-02-21T05:01:42;23.35;;;10.15;;
84670;SDS011;74898;42.716;23.624;2024-02-21T05:04:08;23.10;;;10.95;;
84670;SDS011;74898;42.716;23.624;2024-02-21T05:06:39;24.58;;;10.15;;
84670;SDS011;74898;42.716;23.624;2024-02-21T05:09:06;21.95;;;9.60;;
84670;SDS011;74898;42.716;23.624;2024-02-21T05:11:33;21.45;;;10.30;;
84670;SDS011;74898;42.716;23.624;2024-02-21T05:13:59;25.38;;;10.90;;
84670;SDS011;74898;42.716;23.624;2024-02-21T05:16:24;23.92;;;11.15;;
84670;SDS011;74898;42.716;23.624;2024-02-21T05:18:50;25.00;;;11.93;;
84670;SDS011;74898;42.716;23.624;2024-02-21T05:21:15;27.15;;;12.52;;
84670;SDS011;74898;42.716;23.624;2024-02-21T05:23:41;28.95;;;13.73;;
84670;SDS011;74898;42.716;23.624;2024-02-21T05:26:07;30.17;;;13.75;;
84670;SDS011;74898;42.716;23.624;2024-02-21T05:28:32;34.05;;;15.80;;
84670;SDS011;74898;42.716;23.624;2024-02-21T05:30:58;34.80;;;14.75;;
84670;SDS011;74898;42.716;23.624;2024-02-21T05:33:23;39.45;;;18.60;;
84670;SDS011;74898;42.716;23.624;2024-02-21T05:35:50;34.35;;;16.92;;
84670;SDS011;74898;42.716;23.624;2024-02-21T05:38:16;32.60;;;15.05;;
84670;SDS011;74898;42.716;23.624;2024-02-21T05:40:42;36.90;;;16.00;;
84670;SDS011;74898;42.716;23.624;2024-02-21T05:43:09;36.25;;;16.38;;
84670;SDS011;74898;42.716;23.624;2024-02-21T05:45:34;40.40;;;17.95;;
84670;SDS011;74898;42.716;23.624;2024-02-21T05:48:00;33.95;;;15.98;;
84670;SDS011;74898;42.716;23.624;2024-02-21T05:50:26;31.35;;;15.38;;
84670;SDS011;74898;42.716;23.624;2024-02-21T05:52:54;32.28;;;14.70;;
84670;SDS011;74898;42.716;23.624;2024-02-21T05:55:23;29.70;;;14.38;;
84670;SDS011;74898;42.716;23.624;2024-02-21T05:57:49;27.70;;;12.82;;
84670;SDS011;74898;42.716;23.624;2024-02-21T06:00:15;22.90;;;11.73;;
84670;SDS011;74898;42.716;23.624;2024-02-21T06:02:41;27.08;;;13.15;;
84670;SDS011;74898;42.716;23.624;2024-02-21T06:05:07;23.38;;;11.80;;
84670;SDS011;74898;42.716;23.624;2024-02-21T06:07:34;27.38;;;12.00;;
84670;SDS011;74898;42.716;23.624;2024-02-21T06:10:00;27.88;;;12.88;;
84670;SDS011;74898;42.716;23.624;2024-02-21T06:12:26;27.02;;;13.35;;
84670;SDS011;74898;42.716;23.624;2024-02-21T06:14:52;26.98;;;12.68;;
84670;SDS011;74898;42.716;23.624;2024-02-21T06:17:17;26.90;;;13.45;;
84670;SDS011;74898;42.716;23.624;2024-02-21T06:19:43;27.52;;;13.48;;
84670;SDS011;74898;42.716;23.624;2024-02-21T06:22:09;30.27;;;13.50;;
84670;SDS011;74898;42.716;23.624;2024-02-21T06:24:35;42.65;;;18.15;;
84670;SDS011;74898;42.716;23.624;2024-02-21T06:27:02;44.65;;;21.05;;
84670;SDS011;74898;42.716;23.624;2024-02-21T06:29:28;58.25;;;28.23;;
84670;SDS011;74898;42.716;23.624;2024-02-21T06:31:54;67.35;;;30.23;;
84670;SDS011;74898;42.716;23.624;2024-02-21T06:34:19;53.47;;;27.75;;
84670;SDS011;74898;42.716;23.624;2024-02-21T06:36:45;57.22;;;28.48;;
84670;SDS011;74898;42.716;23.624;2024-02-21T06:39:10;48.05;;;23.65;;
84670;SDS011;74898;42.716;23.624;2024-02-21T06:41:36;38.70;;;19.00;;
84670;SDS011;74898;42.716;23.624;2024-02-21T06:44:02;37.72;;;16.85;;
84670;SDS011;74898;42.716;23.624;2024-02-21T06:46:28;29.75;;;15.02;;
84670;SDS011;74898;42.716;23.624;2024-02-21T06:48:54;27.20;;;13.85;;
84670;SDS011;74898;42.716;23.624;2024-02-21T06:51:23;30.35;;;14.52;;
84670;SDS011;74898;42.716;23.624;2024-02-21T06:53:50;26.30;;;14.23;;
84670;SDS011;74898;42.716;23.624;2024-02-21T06:56:15;26.15;;;14.65;;
84670;SDS011;74898;42.716;23.624;2024-02-21T06:58:41;28.25;;;14.35;;
84670;SDS011;74898;42.716;23.624;2024-02-21T07:01:07;30.83;;;14.35;;
84670;SDS011;74898;42.716;23.624;2024-02-21T07:03:33;27.52;;;14.70;;
84670;SDS011;74898;42.716;23.624;2024-02-21T07:05:58;27.83;;;12.48;;
84670;SDS011;74898;42.716;23.624;2024-02-21T07:08:24;25.38;;;13.48;;
84670;SDS011;74898;42.716;23.624;2024-02-21T07:10:49;28.05;;;13.85;;
84670;SDS011;74898;42.716;23.624;2024-02-21T07:13:15;26.02;;;13.35;;
84670;SDS011;74898;42.716;23.624;2024-02-21T07:15:41;26.60;;;12.50;;
84670;SDS011;74898;42.716;23.624;2024-02-21T07:18:07;31.08;;;14.32;;
84670;SDS011;74898;42.716;23.624;2024-02-21T07:20:32;34.55;;;16.20;;
84670;SDS011;74898;42.716;23.624;2024-02-21T07:23:06;28.80;;;13.68;;
84670;SDS011;74898;42.716;23.624;2024-02-21T07:25:32;26.10;;;13.00;;
84670;SDS011;74898;42.716;23.624;2024-02-21T07:27:58;23.98;;;12.43;;
84670;SDS011;74898;42.716;23.624;2024-02-21T07:30:23;26.00;;;13.70;;
84670;SDS011;74898;42.716;23.624;2024-02-21T07:32:49;28.17;;;13.95;;
84670;SDS011;74898;42.716;23.624;2024-02-21T07:35:15;24.75;;;12.25;;
84670;SDS011;74898;42.716;23.624;2024-02-21T07:37:41;19.95;;;10.68;;
84670;SDS011;74898;42.716;23.624;2024-02-21T07:40:11;21.77;;;11.75;;
84670;SDS011;74898;42.716;23.624;2024-02-21T07:42:41;24.77;;;12.02;;
84670;SDS011;74898;42.716;23.624;2024-02-21T07:45:07;26.00;;;12.18;;
84670;SDS011;74898;42.716;23.624;2024-02-21T07:47:34;23.52;;;11.90;;
84670;SDS011;74898;42.716;23.624;2024-02-21T07:49:59;25.15;;;13.10;;
84670;SDS011;74898;42.716;23.624;2024-02-21T07:52:25;20.02;;;10.55;;
84670;SDS011;74898;42.716;23.624;2024-02-21T07:54:51;24.30;;;12.02;;
84670;SDS011;74898;42.716;23.624;2024-02-21T07:57:16;19.27;;;10.77;;
84670;SDS011;74898;42.716;23.624;2024-02-21T07:59:42;22.83;;;11.32;;
84670;SDS011;74898;42.716;23.624;2024-02-21T08:02:08;23.05;;;12.32;;
84670;SDS011;74898;42.716;23.624;2024-02-21T08:04:33;24.67;;;12.07;;
84670;SDS011;74898;42.716;23.624;2024-02-21T08:06:59;22.23;;;10.75;;
84670;SDS011;74898;42.716;23.624;2024-02-21T08:09:27;23.15;;;12.10;;
84670;SDS011;74898;42.716;23.624;2024-02-21T08:11:53;20.88;;;11.85;;
84670;SDS011;74898;42.716;23.624;2024-02-21T08:14:20;22.45;;;11.48;;
84670;SDS011;74898;42.716;23.624;2024-02-21T08:16:46;18.83;;;10.45;;
84670;SDS011;74898;42.716;23.624;2024-02-21T08:19:11;15.18;;;8.35;;
84670;SDS011;74898;42.716;23.624;2024-02-21T08:21:37;16.35;;;9.02;;
84670;SDS011;74898;42.716;23.624;2024-02-21T08:24:02;15.00;;;8.27;;
84670;SDS011;74898;42.716;23.624;2024-02-21T08:26:28;17.65;;;9.75;;
84670;SDS011;74898;42.716;23.624;2024-02-21T08:28:56;15.15;;;9.15;;
84670;SDS011;74898;42.716;23.624;2024-02-21T08:31:25;15.85;;;9.30;;
84670;SDS011;74898;42.716;23.624;2024-02-21T08:33:59;18.67;;;10.25;;
84670;SDS011;74898;42.716;23.624;2024-02-21T08:36:35;21.95;;;10.73;;
84670;SDS011;74898;42.716;23.624;2024-02-21T08:39:01;16.98;;;10.00;;
84670;SDS011;74898;42.716;23.624;2024-02-21T08:41:30;17.83;;;10.35;;
84670;SDS011;74898;42.716;23.624;2024-02-21T08:43:56;17.00;;;10.13;;
84670;SDS011;74898;42.716;23.624;2024-02-21T08:46:22;17.15;;;9.02;;
84670;SDS011;74898;42.716;23.624;2024-02-21T08:48:49;18.35;;;9.00;;
84670;SDS011;74898;42.716;23.624;2024-02-21T08:51:16;15.02;;;8.20;;
84670;SDS011;74898;42.716;23.624;2024-02-21T08:53:42;15.95;;;9.27;;
84670;SDS011;74898;42.716;23.624;2024-02-21T08:56:08;18.02;;;10.00;;
84670;SDS011;74898;42.716;23.624;2024-02-21T08:58:34;14.70;;;8.70;;
84670;SDS011;74898;42.716;23.624;2024-02-21T09:01:01;15.70;;;8.20;;
84670;SDS011;74898;42.716;23.624;2024-02-21T09:03:30;16.42;;;9.20;;
84670;SDS011;74898;42.716;23.624;2024-02-21T09:05:56;15.02;;;9.15;;
84670;SDS011;74898;42.716;23.624;2024-02-21T09:08:22;15.13;;;9.48;;
84670;SDS011;74898;42.716;23.624;2024-02-21T09:10:49;17.02;;;9.55;;
84670;SDS011;74898;42.716;23.624;2024-02-21T09:13:14;17.08;;;9.48;;
84670;SDS011;74898;42.716;23.624;2024-02-21T09:15:40;15.90;;;7.93;;
84670;SDS011;74898;42.716;23.624;2024-02-21T09:18:06;16.65;;;10.13;;
84670;SDS011;74898;42.716;23.624;2024-02-21T09:20:31;14.60;;;8.93;;
84670;SDS011;74898;42.716;23.624;2024-02-21T09:22:57;17.75;;;10.15;;
84670;SDS011;74898;42.716;23.624;2024-02-21T09:25:22;13.57;;;8.30;;
84670;SDS011;74898;42.716;23.624;2024-02-21T09:27:48;17.02;;;9.65;;
84670;SDS011;74898;42.716;23.624;2024-02-21T09:30:13;16.00;;;9.30;;
84670;SDS011;74898;42.716;23.624;2024-02-21T09:32:39;14.98;;;9.55;;
84670;SDS011;74898;42.716;23.624;2024-02-21T09:35:05;16.75;;;9.90;;
84670;SDS011;74898;42.716;23.624;2024-02-21T09:37:31;16.55;;;10.15;;
84670;SDS011;74898;42.716;23.624;2024-02-21T09:39:56;16.45;;;9.77;;
84670;SDS011;74898;42.716;23.624;2024-02-21T09:42:22;20.50;;;11.02;;
84670;SDS011;74898;42.716;23.624;2024-02-21T09:45:02;15.95;;;9.52;;
84670;SDS011;74898;42.716;23.624;2024-02-21T09:47:50;16.08;;;9.00;;
84670;SDS011;74898;42.716;23.624;2024-02-21T09:50:16;16.65;;;9.43;;
84670;SDS011;74898;42.716;23.624;2024-02-21T09:52:43;17.77;;;9.65;;
84670;SDS011;74898;42.716;23.624;2024-02-21T09:55:09;15.40;;;9.63;;
84670;SDS011;74898;42.716;23.624;2024-02-21T09:57:37;17.50;;;9.88;;
84670;SDS011;74898;42.716;23.624;2024-02-21T10:00:03;19.27;;;10.75;;
84670;SDS011;74898;42.716;23.624;2024-02-21T10:02:33;19.10;;;11.02;;
84670;SDS011;74898;42.716;23.624;2024-02-21T10:04:58;17.55;;;10.00;;
84670;SDS011;74898;42.716;23.624;2024-02-21T10:07:24;16.20;;;9.48;;
84670;SDS011;74898;42.716;23.624;2024-02-21T10:10:00;17.58;;;10.13;;
84670;SDS011;74898;42.716;23.624;2024-02-21T10:12:26;19.15;;;11.68;;
84670;SDS011;74898;42.716;23.624;2024-02-21T10:15:00;21.65;;;10.13;;
84670;SDS011;74898;42.716;23.624;2024-02-21T10:17:26;20.35;;;11.85;;
84670;SDS011;74898;42.716;23.624;2024-02-21T10:19:51;22.70;;;12.50;;
84670;SDS011;74898;42.716;23.624;2024-02-21T10:22:17;21.63;;;11.77;;
84670;SDS011;74898;42.716;23.624;2024-02-21T10:24:42;19.50;;;11.48;;
84670;SDS011;74898;42.716;23.624;2024-02-21T10:27:09;22.33;;;11.90;;
84670;SDS011;74898;42.716;23.624;2024-02-21T10:29:37;19.73;;;11.18;;
84670;SDS011;74898;42.716;23.624;2024-02-21T10:32:04;17.23;;;10.93;;
84670;SDS011;74898;42.716;23.624;2024-02-21T10:34:31;19.92;;;10.45;;
84670;SDS011;74898;42.716;23.624;2024-02-21T10:37:03;20.48;;;10.23;;
84670;SDS011;74898;42.716;23.624;2024-02-21T10:39:33;19.05;;;10.18;;
84670;SDS011;74898;42.716;23.624;2024-02-21T10:42:01;14.98;;;9.77;;
84670;SDS011;74898;42.716;23.624;2024-02-21T10:44:29;17.10;;;9.48;;
84670;SDS011;74898;42.716;23.624;2024-02-21T10:46:56;14.10;;;8.35;;
84670;SDS011;74898;42.716;23.624;2024-02-21T10:49:23;13.65;;;8.07;;
84670;SDS011;74898;42.716;23.624;2024-02-21T10:52:39;13.65;;;7.43;;
84670;SDS011;74898;42.716;23.624;2024-02-21T10:55:09;13.38;;;8.43;;
84670;SDS011;74898;42.716;23.624;2024-02-21T10:57:40;12.57;;;7.93;;
84670;SDS011;74898;42.716;23.624;2024-02-21T11:00:06;12.77;;;7.53;;
84670;SDS011;74898;42.716;23.624;2024-02-21T11:02:35;12.90;;;8.00;;
84670;SDS011;74898;42.716;23.624;2024-02-21T11:05:01;9.38;;;6.05;;
84670;SDS011;74898;42.716;23.624;2024-02-21T11:07:29;9.38;;;5.65;;
84670;SDS011;74898;42.716;23.624;2024-02-21T11:12:24;9.82;;;5.35;;
84670;SDS011;74898;42.716;23.624;2024-02-21T11:14:51;8.63;;;5.55;;
84670;SDS011;74898;42.716;23.624;2024-02-21T11:17:17;9.25;;;5.68;;
84670;SDS011;74898;42.716;23.624;2024-02-21T11:19:44;9.18;;;6.15;;
84670;SDS011;74898;42.716;23.624;2024-02-21T11:22:16;9.40;;;5.80;;
84670;SDS011;74898;42.716;23.624;2024-02-21T11:24:43;9.55;;;5.78;;
84670;SDS011;74898;42.716;23.624;2024-02-21T11:27:09;8.63;;;5.47;;
84670;SDS011;74898;42.716;23.624;2024-02-21T11:29:40;11.15;;;5.60;;
84670;SDS011;74898;42.716;23.624;2024-02-21T11:32:10;6.82;;;4.65;;
84670;SDS011;74898;42.716;23.624;2024-02-21T11:34:38;6.80;;;4.57;;
84670;SDS011;74898;42.716;23.624;2024-02-21T11:37:13;6.10;;;4.30;;
84670;SDS011;74898;42.716;23.624;2024-02-21T11:39:42;8.60;;;4.75;;
84670;SDS011;74898;42.716;23.624;2024-02-21T11:42:08;8.90;;;5.03;;
84670;SDS011;74898;42.716;23.624;2024-02-21T11:44:35;7.03;;;4.70;;
84670;SDS011;74898;42.716;23.624;2024-02-21T11:47:05;8.55;;;5.90;;
84670;SDS011;74898;42.716;23.624;2024-02-21T11:49:37;6.85;;;5.35;;
84670;SDS011;74898;42.716;23.624;2024-02-21T11:52:07;6.97;;;4.65;;
84670;SDS011;74898;42.716;23.624;2024-02-21T11:54:33;7.93;;;5.55;;
84670;SDS011;74898;42.716;23.624;2024-02-21T11:56:59;11.00;;;6.18;;
84670;SDS011;74898;42.716;23.624;2024-02-21T11:59:25;10.40;;;6.78;;
84670;SDS011;74898;42.716;23.624;2024-02-21T12:01:52;7.20;;;5.30;;
84670;SDS011;74898;42.716;23.624;2024-02-21T12:04:18;10.73;;;6.40;;
84670;SDS011;74898;42.716;23.624;2024-02-21T12:06:45;9.90;;;6.18;;
84670;SDS011;74898;42.716;23.624;2024-02-21T12:09:14;11.63;;;7.50;;
84670;SDS011;74898;42.716;23.624;2024-02-21T12:11:44;15.40;;;7.85;;
84670;SDS011;74898;42.716;23.624;2024-02-21T12:14:10;12.88;;;7.25;;
84670;SDS011;74898;42.716;23.624;2024-02-21T12:16:36;9.95;;;6.68;;
84670;SDS011;74898;42.716;23.624;2024-02-21T12:19:02;7.75;;;5.57;;
84670;SDS011;74898;42.716;23.624;2024-02-21T12:21:31;7.78;;;5.60;;
84670;SDS011;74898;42.716;23.624;2024-02-21T12:23:58;7.00;;;5.35;;
84670;SDS011;74898;42.716;23.624;2024-02-21T12:26:24;8.98;;;5.60;;
84670;SDS011;74898;42.716;23.624;2024-02-21T12:28:50;7.22;;;5.22;;
84670;SDS011;74898;42.716;23.624;2024-02-21T12:31:16;9.57;;;6.53;;
84670;SDS011;74898;42.716;23.624;2024-02-21T12:33:42;9.35;;;5.85;;
84670;SDS011;74898;42.716;23.624;2024-02-21T12:36:08;9.52;;;5.88;;
84670;SDS011;74898;42.716;23.624;2024-02-21T12:38:34;6.40;;;4.80;;
84670;SDS011;74898;42.716;23.624;2024-02-21T12:41:00;7.68;;;4.88;;
84670;SDS011;74898;42.716;23.624;2024-02-21T12:43:26;14.70;;;6.95;;
84670;SDS011;74898;42.716;23.624;2024-02-21T12:45:52;7.13;;;4.47;;
84670;SDS011;74898;42.716;23.624;2024-02-21T12:48:17;5.85;;;4.32;;
84670;SDS011;74898;42.716;23.624;2024-02-21T12:50:52;6.63;;;5.05;;
84670;SDS011;74898;42.716;23.624;2024-02-21T12:53:18;6.78;;;5.10;;
84670;SDS011;74898;42.716;23.624;2024-02-21T12:55:46;6.43;;;4.75;;
84670;SDS011;74898;42.716;23.624;2024-02-21T12:58:15;9.15;;;5.32;;
84670;SDS011;74898;42.716;23.624;2024-02-21T13:00:41;8.45;;;5.10;;
84670;SDS011;74898;42.716;23.624;2024-02-21T13:03:07;8.10;;;5.93;;
84670;SDS011;74898;42.716;23.624;2024-02-21T13:05:34;8.52;;;5.50;;
84670;SDS011;74898;42.716;23.624;2024-02-21T13:08:01;7.03;;;5.03;;
84670;SDS011;74898;42.716;23.624;2024-02-21T13:10:26;8.63;;;5.18;;
84670;SDS011;74898;42.716;23.624;2024-02-21T13:12:52;8.95;;;5.10;;
84670;SDS011;74898;42.716;23.624;2024-02-21T13:15:17;9.35;;;5.18;;
84670;SDS011;74898;42.716;23.624;2024-02-21T13:17:43;9.63;;;5.45;;
84670;SDS011;74898;42.716;23.624;2024-02-21T13:20:09;7.90;;;5.25;;
84670;SDS011;74898;42.716;23.624;2024-02-21T13:22:36;10.80;;;5.88;;
84670;SDS011;74898;42.716;23.624;2024-02-21T13:25:02;8.43;;;4.80;;
84670;SDS011;74898;42.716;23.624;2024-02-21T13:27:28;7.20;;;4.30;;
84670;SDS011;74898;42.716;23.624;2024-02-21T13:29:53;6.90;;;4.72;;
84670;SDS011;74898;42.716;23.624;2024-02-21T13:32:19;6.13;;;4.40;;
84670;SDS011;74898;42.716;23.624;2024-02-21T13:34:44;7.13;;;4.25;;
84670;SDS011;74898;42.716;23.624;2024-02-21T13:37:10;7.35;;;4.75;;
84670;SDS011;74898;42.716;23.624;2024-02-21T13:39:36;8.13;;;4.85;;
84670;SDS011;74898;42.716;23.624;2024-02-21T13:42:02;9.13;;;5.15;;
84670;SDS011;74898;42.716;23.624;2024-02-21T13:44:30;8.68;;;5.45;;
84670;SDS011;74898;42.716;23.624;2024-02-21T13:46:56;8.05;;;4.82;;
84670;SDS011;74898;42.716;23.624;2024-02-21T13:49:22;8.18;;;5.55;;
84670;SDS011;74898;42.716;23.624;2024-02-21T13:51:47;8.25;;;5.25;;
84670;SDS011;74898;42.716;23.624;2024-02-21T13:54:13;7.90;;;4.82;;
84670;SDS011;74898;42.716;23.624;2024-02-21T13:56:42;6.53;;;4.53;;
84670;SDS011;74898;42.716;23.624;2024-02-21T13:59:08;6.13;;;4.32;;
84670;SDS011;74898;42.716;23.624;2024-02-21T14:01:33;6.88;;;4.07;;
84670;SDS011;74898;42.716;23.624;2024-02-21T14:04:00;6.53;;;3.75;;
84670;SDS011;74898;42.716;23.624;2024-02-21T14:06:26;6.35;;;4.35;;
84670;SDS011;74898;42.716;23.624;2024-02-21T14:08:52;5.57;;;4.03;;
84670;SDS011;74898;42.716;23.624;2024-02-21T14:11:18;6.03;;;3.92;;
84670;SDS011;74898;42.716;23.624;2024-02-21T14:13:43;6.80;;;4.53;;
84670;SDS011;74898;42.716;23.624;2024-02-21T14:16:10;6.50;;;4.55;;
84670;SDS011;74898;42.716;23.624;2024-02-21T14:18:38;7.13;;;4.90;;
84670;SDS011;74898;42.716;23.624;2024-02-21T14:21:06;8.77;;;5.07;;